首页
METAR-TAF:

METAR-TAF

机场 :

Seiyun, 也门

纬度: 15-58N, 经度: 048-48E, 海拔: 701米

当前天气观测

该预报发布于1小时和18分钟前的19:00 UTC
风速4节,风向南转西南,在西转西南之间变化
温度 33°C
湿度 30%
气压 1006 hPa
能见度10公里或以上
1500米以下无云,无积雨云

METAR: OYSY 231900Z 21004KT 180V240 CAVOK 33/13 Q1006

时间: 23:18 (20:18 UTC)


TAF: 丢失

超过4000个机场的气象观测和天气预报(METAR&TAF报告)。

可查询的气象台以黄色和红色小点在地图上表示。

将鼠标移到小点上方,可查看气象台名称。

然后点击查看天气观测和预报。

如需切换地图:点击带黑十字的绿色按钮放大地图;点击带横线的绿色按钮缩小地图;或者点击绿色箭头查看邻近地区的地图。


METAR-TAF: